FW7253 Weather Reports


Display with metric or nautical units.
time (UTC)temp
F
wind
direction
speed
MPH
gust
MPH
rain 1hr
in
rain 24hr
in
rain mn
in
humidity
%
barometer
mb
20240518234538 48 0 0.0 0.0 0.00 0.00 0.00 85 1014.4
20240518233031 48 0 0.0 1.0 0.00 0.00 0.00 82 1014.5
20240518231535 49 0 0.0 0.0 0.00 0.00 0.00 79 1014.5
20240518230038 49 0 0.0 0.0 0.00 0.00 0.00 82 1014.6
20240518224547 49 0 0.0 1.0 0.00 0.00 0.00 77 1014.7
20240518223042 50 0 0.0 1.0 0.00 0.00 0.00 71 1014.8
20240518221537 52 0 0.0 3.0 0.00 0.00 0.00 68 1014.8
20240518220046 53 322 0.0 1.0 0.00 0.00 0.00 65 1014.8
20240518214536 54 0 0.0 1.0 0.00 0.00 0.00 63 1015.0
20240518213043 54 0 0.0 0.0 0.00 0.00 0.00 61 1015.1
20240518211536 55 0 0.0 0.0 0.00 0.00 0.00 61 1015.2
20240518210042 57 0 0.0 0.0 0.00 0.00 0.00 58 1015.0
20240518204534 58 0 0.0 0.0 0.00 0.00 0.00 55 1015.2
20240518203038 60 0 0.0 1.0 0.00 0.00 0.00 52 1015.2
20240518201539 60 136 0.0 1.0 0.00 0.00 0.00 52 1015.3
20240518200037 61 0 0.0 0.0 0.00 0.00 0.00 51 1015.3
20240518194554 61 221 0.0 1.0 0.00 0.00 0.00 48 1015.2
20240518193038 63 0 0.0 0.0 0.00 0.00 0.00 47 1015.2
20240518191547 64 0 0.0 1.0 0.00 0.00 0.00 44 1015.2
20240518190057 66 0 1.0 3.0 0.00 0.00 0.00 41 1015.2
20240518184538 67 169 2.0 5.0 0.00 0.00 0.00 39 1015.2
20240518183040 67 181 2.0 6.0 0.00 0.00 0.00 38 1015.3
20240518181541 68 157 2.0 7.0 0.00 0.00 0.00 38 1015.3
20240518180037 69 172 3.0 7.0 0.00 0.00 0.00 37 1015.4
20240518174535 69 153 3.0 8.0 0.00 0.00 0.00 38 1015.5
20240518173035 69 200 3.0 7.0 0.00 0.00 0.00 38 1015.5
20240518171538 70 159 2.0 7.0 0.00 0.00 0.00 37 1015.6
20240518170104 70 177 3.0 11.0 0.00 0.00 0.00 37 1015.6
20240518164551 70 198 7.0 12.0 0.00 0.00 0.00 38 1015.7
20240518163043 70 166 4.0 8.0 0.00 0.00 0.00 37 1016.0
20240518161540 71 133 4.0 10.0 0.00 0.00 0.00 38 1016.1
20240518160038 71 102 5.0 8.0 0.00 0.00 0.00 37 1016.3
20240518154541 70 186 3.0 11.0 0.00 0.00 0.00 38 1016.4
20240518153036 71 91 3.0 12.0 0.00 0.00 0.00 36 1016.6
20240518151541 71 134 6.0 10.0 0.00 0.00 0.00 38 1016.6
20240518150036 71 134 4.0 14.0 0.00 0.00 0.00 37 1016.7
20240518144540 72 169 5.0 14.0 0.00 0.00 0.00 35 1016.9
20240518143112 72 198 5.0 14.0 0.00 0.00 0.00 36 1016.9
20240518141536 71 152 5.0 12.0 0.00 0.00 0.00 37 1017.1
20240518140051 71 113 5.0 11.0 0.00 0.00 0.00 38 1017.2
20240518134537 71 134 5.0 11.0 0.00 0.00 0.00 40 1017.3
20240518133057 71 82 4.0 9.0 0.00 0.00 0.00 38 1017.4
20240518131543 72 207 3.0 13.0 0.00 0.00 0.00 38 1017.4
20240518130044 71 145 4.0 12.0 0.00 0.00 0.00 41 1017.6
20240518124542 71 148 4.0 9.0 0.00 0.00 0.00 39 1017.7
20240518123037 71 217 6.0 11.0 0.00 0.00 0.00 41 1017.7
20240518121539 72 212 4.0 8.0 0.00 0.00 0.00 41 1017.8
20240518120038 71 203 4.0 12.0 0.00 0.00 0.00 37 1018.1
20240518114547 71 117 5.0 10.0 0.00 0.00 0.00 42 1018.1
20240518113047 71 129 4.0 10.0 0.00 0.00 0.00 39 1018.2
20240518111553 71 111 5.0 10.0 0.00 0.00 0.00 42 1018.2
20240518110043 71 221 2.0 9.0 0.00 0.00 0.00 48 1018.3
20240518104539 71 116 4.0 10.0 0.00 0.00 0.00 48 1018.3
20240518103039 71 157 3.0 7.0 0.00 0.00 0.00 50 1018.4
20240518101539 70 139 2.0 7.0 0.00 0.00 0.00 45 1018.5
20240518100038 70 97 3.0 7.0 0.00 0.00 0.00 44 1018.7
20240518094538 69 143 2.0 6.0 0.00 0.00 0.00 47 1018.7
20240518093034 69 243 1.0 7.0 0.00 0.00 0.00 48 1018.8
20240518091535 68 135 2.0 8.0 0.00 0.00 0.00 49 1018.9
20240518090040 68 308 0.0 6.0 0.00 0.00 0.00 50 1019.1
20240518084539 67 92 1.0 5.0 0.00 0.00 0.00 53 1019.1
20240518083035 66 146 3.0 6.0 0.00 0.00 0.00 52 1019.2
20240518081542 65 97 2.0 4.0 0.00 0.00 0.00 53 1019.1
20240518080036 64 207 2.0 3.0 0.00 0.00 0.00 55 1019.1
20240518074552 62 214 1.0 3.0 0.00 0.00 0.00 58 1019.2
20240518073041 61 0 0.0 0.0 0.00 0.00 0.00 58 1019.3
20240518071603 60 0 0.0 2.0 0.00 0.00 0.00 60 1019.3
20240518070109 59 230 0.0 2.0 0.00 0.00 0.00 61 1019.4
20240518064546 58 281 1.0 2.0 0.00 0.00 0.00 64 1019.3
20240518063045 57 0 0.0 3.0 0.00 0.00 0.00 62 1019.4
20240518061608 55 314 2.0 3.0 0.00 0.00 0.00 68 1019.4
20240518060111 53 0 0.0 1.0 0.00 0.00 0.00 74 1019.4
20240518054600 51 0 0.0 1.0 0.00 0.00 0.00 76 1019.3
20240518053103 51 315 1.0 2.0 0.00 0.00 0.00 76 1019.3
20240518051546 50 117 0.0 1.0 0.00 0.00 0.00 81 1019.2
20240518050123 49 101 1.0 2.0 0.00 0.00 0.00 83 1019.2
20240518044552 50 0 0.0 4.0 0.00 0.00 0.00 80 1019.1
20240518043107 48 350 4.0 8.0 0.00 0.00 0.00 78 1019.0
20240518041550 45 0 0.0 1.0 0.00 0.00 0.00 90 1019.1
20240518040113 44 0 0.0 0.0 0.00 0.00 0.00 90 1019.1
20240518034602 43 0 0.0 0.0 0.00 0.00 0.00 90 1019.1
20240518033056 43 0 0.0 0.0 0.00 0.00 0.00 90 1019.2
20240518031543 43 0 0.0 0.0 0.00 0.00 0.00 89 1019.0
20240518030040 44 0 0.0 0.0 0.00 0.00 0.00 88 1019.2
20240518024630 44 0 0.0 0.0 0.00 0.00 0.00 89 1019.2
20240518023101 44 0 0.0 1.0 0.00 0.00 0.00 89 1019.3
20240518021601 44 304 0.0 1.0 0.00 0.00 0.00 88 1019.3
20240518020040 44 161 0.0 1.0 0.00 0.00 0.00 90 1019.4
20240518014538 45 0 0.0 0.0 0.00 0.00 0.00 89 1019.3
20240518013046 45 0 0.0 0.0 0.00 0.00 0.00 89 1019.3
20240518011537 45 0 0.0 1.0 0.00 0.00 0.00 88 1019.4
20240518010043 45 0 0.0 0.0 0.00 0.00 0.00 87 1019.4
20240518004538 45 0 0.0 0.0 0.00 0.00 0.00 85 1019.5
20240518003046 46 0 0.0 1.0 0.00 0.00 0.00 85 1019.4
20240518001539 46 0 0.0 0.0 0.00 0.00 0.00 84 1019.5
20240518000043 47 0 0.0 0.0 0.00 0.00 0.00 83 1019.6